Aaron Joseph — WCV9877 — position and weather

sailwx.info

Track history (hours):
 
Tides and Currents Weather Stations Pressure Air Temp Water Temp Dewpoint Dewpoint Depression Visibility Wind Speed Wind Dir Waves Ship Positions

Aaron Joseph

Owner: AARON JOSEPH INC, GOLDEN MEADOW, LA. More information available from US FCC via Universal Licensing System and Coast Guard Vessel Documentation Center.

Last reported at 2014-Oct-25 09:33 UTC. Time now 2014-Oct-25 10:17 UTC.
Position N 29°41' W 091°12'.

; draft 2.5 m.

Type: Tug. MMSI: 367028680.

Date/timePositionNaut miles runAvg speedWind from/ knotsBaromVisibWave heightAir tempDewpointWater temp
2014-Oct-25 09:33N 29°41' W 091°12'0 0.0
2014-Oct-25 08:33N 29°41' W 091°12'0 0.0
2014-Oct-25 07:33N 29°41' W 091°12'0 0.0
2014-Oct-25 06:33N 29°41' W 091°12'0 0.0
2014-Oct-25 05:33N 29°41' W 091°12'0 0.0
2014-Oct-25 04:33N 29°41' W 091°12'0 0.0
2014-Oct-25 03:33N 29°41' W 091°12'0 0.0
2014-Oct-25 02:33N 29°41' W 091°12'0 0.0
2014-Oct-25 01:33N 29°41' W 091°12'0 0.0
2014-Oct-25 00:33N 29°41' W 091°12'0 0.0
2014-Oct-24 23:33N 29°41' W 091°12'0 0.0
2014-Oct-24 22:33N 29°41' W 091°12'0 0.0
2014-Oct-24 21:33N 29°41' W 091°12'0 0.0
2014-Oct-24 20:33N 29°41' W 091°12'0 0.0
2014-Oct-24 19:33N 29°41' W 091°12'0 0.0
2014-Oct-24 18:33N 29°41' W 091°12'0 0.0
2014-Oct-24 17:33N 29°41' W 091°12'0 0.0
2014-Oct-24 16:33N 29°41' W 091°12'0 0.0
2014-Oct-24 15:33N 29°41' W 091°12'0 0.0
2014-Oct-24 14:33N 29°41' W 091°12'0 0.0
2014-Oct-24 13:33N 29°41' W 091°12'0 0.0
2014-Oct-24 12:33N 29°41' W 091°12'0 0.0
2014-Oct-24 11:32N 29°41' W 091°12'0 0.0
2014-Oct-24 10:34N 29°41' W 091°12'0 0.0
2014-Oct-24 09:34N 29°41' W 091°12'0 0.0
2014-Oct-24 08:33N 29°41' W 091°12'0 0.0
2014-Oct-24 07:34N 29°41' W 091°12'1 1.1
2014-Oct-24 06:34N 29°41' W 091°11'5 4.6
2014-Oct-24 05:34N 29°38' W 091°07'6 5.8
2014-Oct-24 04:33N 29°37' W 091°00'6 6.1
2014-Oct-24 03:32N 29°33' W 090°55'30 0.8
2014-Oct-22 14:04N 29°47' W 090°24'0 0.0
2014-Oct-22 13:33N 29°47' W 090°24'2 1.9
2014-Oct-22 12:31N 29°46' W 090°23'0 0.0
2014-Oct-21 14:16N 29°46' W 090°23'0 0.0
2014-Oct-21 06:06N 29°46' W 090°23'7 3.4
2014-Oct-21 04:09N 29°41' W 090°18'  
2014-Oct-17 07:17N 29°41' W 090°18'7 1.1
2014-Oct-17 01:19N 29°46' W 090°23'0 0.0
2014-Oct-16 06:16N 29°46' W 090°23'0 0.0
2014-Oct-15 13:17N 29°46' W 090°23'0 0.0
2014-Oct-15 12:33N 29°46' W 090°23'0 0.0
2014-Oct-15 11:23N 29°46' W 090°23'0 0.0
2014-Oct-15 10:27N 29°46' W 090°23'  
Track history (hours):
 
Tides and Currents Weather Stations Pressure Air Temp Water Temp Dewpoint Dewpoint Depression Visibility Wind Speed Wind Dir Waves Ship Positions

Aaron Joseph

Owner: AARON JOSEPH INC, GOLDEN MEADOW, LA. More information available from US FCC via Universal Licensing System and Coast Guard Vessel Documentation Center.

Last reported at 2014-Oct-25 09:33 UTC. Time now 2014-Oct-25 10:17 UTC.
Position N 29°41' W 091°12'.

; draft 2.5 m.

Type: Tug. MMSI: 367028680.

Date/timePositionNaut miles runAvg speedWind from/ knotsBaromVisibWave heightAir tempDewpointWater temp
2014-Oct-25 09:33N 29°41' W 091°12'0 0.0
2014-Oct-25 08:33N 29°41' W 091°12'0 0.0
2014-Oct-25 07:33N 29°41' W 091°12'0 0.0
2014-Oct-25 06:33N 29°41' W 091°12'0 0.0
2014-Oct-25 05:33N 29°41' W 091°12'0 0.0
2014-Oct-25 04:33N 29°41' W 091°12'0 0.0
2014-Oct-25 03:33N 29°41' W 091°12'0 0.0
2014-Oct-25 02:33N 29°41' W 091°12'0 0.0
2014-Oct-25 01:33N 29°41' W 091°12'0 0.0
2014-Oct-25 00:33N 29°41' W 091°12'0 0.0
2014-Oct-24 23:33N 29°41' W 091°12'0 0.0
2014-Oct-24 22:33N 29°41' W 091°12'0 0.0
2014-Oct-24 21:33N 29°41' W 091°12'0 0.0
2014-Oct-24 20:33N 29°41' W 091°12'0 0.0
2014-Oct-24 19:33N 29°41' W 091°12'0 0.0
2014-Oct-24 18:33N 29°41' W 091°12'0 0.0
2014-Oct-24 17:33N 29°41' W 091°12'0 0.0
2014-Oct-24 16:33N 29°41' W 091°12'0 0.0
2014-Oct-24 15:33N 29°41' W 091°12'0 0.0
2014-Oct-24 14:33N 29°41' W 091°12'0 0.0
2014-Oct-24 13:33N 29°41' W 091°12'0 0.0
2014-Oct-24 12:33N 29°41' W 091°12'0 0.0
2014-Oct-24 11:32N 29°41' W 091°12'0 0.0
2014-Oct-24 10:34N 29°41' W 091°12'0 0.0
2014-Oct-24 09:34N 29°41' W 091°12'0 0.0
2014-Oct-24 08:33N 29°41' W 091°12'0 0.0
2014-Oct-24 07:34N 29°41' W 091°12'1 1.1
2014-Oct-24 06:34N 29°41' W 091°11'5 4.6
2014-Oct-24 05:34N 29°38' W 091°07'6 5.8
2014-Oct-24 04:33N 29°37' W 091°00'6 6.1
2014-Oct-24 03:32N 29°33' W 090°55'30 0.8
2014-Oct-22 14:04N 29°47' W 090°24'0 0.0
2014-Oct-22 13:33N 29°47' W 090°24'2 1.9
2014-Oct-22 12:31N 29°46' W 090°23'0 0.0
2014-Oct-21 14:16N 29°46' W 090°23'0 0.0
2014-Oct-21 06:06N 29°46' W 090°23'7 3.4
2014-Oct-21 04:09N 29°41' W 090°18'  
2014-Oct-17 07:17N 29°41' W 090°18'7 1.1
2014-Oct-17 01:19N 29°46' W 090°23'0 0.0
2014-Oct-16 06:16N 29°46' W 090°23'0 0.0
2014-Oct-15 13:17N 29°46' W 090°23'0 0.0
2014-Oct-15 12:33N 29°46' W 090°23'0 0.0
2014-Oct-15 11:23N 29°46' W 090°23'0 0.0
2014-Oct-15 10:27N 29°46' W 090°23'  

Dump ship's entire track history